createdAt,value
2019-04-03T00:01:24.828Z,12.65
2019-04-03T00:04:29.910Z,12.59
2019-04-03T00:07:35.995Z,12.54
2019-04-03T00:10:41.384Z,12.65
2019-04-03T00:13:46.549Z,12.49
2019-04-03T00:16:51.888Z,12.49
2019-04-03T00:19:57.028Z,12.39
2019-04-03T00:23:02.180Z,12.46
2019-04-03T00:26:07.378Z,12.52
2019-04-03T00:29:12.532Z,12.37
2019-04-03T00:32:17.907Z,12.26
2019-04-03T00:35:23.594Z,12.44
2019-04-03T00:38:29.191Z,12.27
2019-04-03T00:41:34.407Z,12.27
2019-04-03T00:44:39.553Z,12.17
2019-04-03T00:47:44.677Z,12.13
2019-04-03T00:50:49.898Z,12.09
2019-04-03T00:53:57.207Z,12.03
2019-04-03T00:57:02.147Z,11.99
2019-04-03T01:00:12.483Z,11.87
2019-04-03T01:03:17.929Z,11.77
2019-04-03T01:06:23.091Z,11.64
2019-04-03T01:09:29.789Z,11.79
2019-04-03T01:12:35.313Z,11.70
2019-04-03T01:15:40.612Z,11.63
2019-04-03T01:18:45.813Z,11.45
2019-04-03T01:21:51.039Z,11.33
2019-04-03T01:24:56.232Z,11.26
2019-04-03T01:28:01.313Z,11.27
2019-04-03T01:31:06.476Z,11.21
2019-04-03T01:34:11.770Z,11.28
2019-04-03T01:37:18.991Z,11.27
2019-04-03T01:40:23.942Z,11.65
2019-04-03T01:43:29.085Z,11.75
2019-04-03T01:46:34.340Z,11.69
2019-04-03T01:49:39.868Z,11.50
2019-04-03T01:52:45.049Z,11.31
2019-04-03T01:55:50.210Z,11.22
2019-04-03T01:58:55.308Z,11.11
2019-04-03T02:02:00.458Z,11.04
2019-04-03T02:05:06.306Z,11.06
2019-04-03T02:08:14.243Z,11.03
2019-04-03T02:11:19.105Z,11.03
2019-04-03T02:14:24.492Z,11.04
2019-04-03T02:17:29.652Z,11.02
2019-04-03T02:20:35.135Z,10.98
2019-04-03T02:23:40.360Z,10.98
2019-04-03T02:26:45.506Z,10.98
2019-04-03T02:29:50.729Z,11.22
2019-04-03T02:32:57.503Z,11.06
2019-04-03T02:36:02.984Z,10.94
2019-04-03T02:39:09.343Z,10.92
2019-04-03T02:42:14.827Z,10.86
2019-04-03T02:45:23.061Z,10.82
2019-04-03T02:48:27.202Z,10.89
2019-04-03T02:51:32.729Z,10.90
2019-04-03T02:54:41.481Z,10.89
2019-04-03T02:57:49.027Z,10.86
2019-04-03T03:00:53.635Z,11.09
2019-04-03T03:03:58.836Z,11.11
2019-04-03T03:07:05.234Z,11.03
2019-04-03T03:10:10.944Z,10.88
2019-04-03T03:13:16.772Z,10.87
2019-04-03T03:16:22.589Z,10.84
2019-04-03T03:19:31.760Z,10.79
2019-04-03T03:22:37.789Z,10.75
2019-04-03T03:25:44.587Z,10.68
2019-04-03T03:28:50.231Z,10.78
2019-04-03T03:32:08.833Z,10.72
2019-04-03T03:35:12.724Z,10.73
2019-04-03T03:38:10.777Z,10.70
2019-04-03T03:41:16.803Z,10.61
2019-04-03T03:44:24.082Z,10.73
2019-04-03T03:47:32.021Z,10.63
2019-04-03T03:50:38.163Z,10.63
2019-04-03T03:53:45.474Z,10.64
2019-04-03T03:56:52.190Z,10.58
2019-04-03T03:59:57.336Z,10.53
2019-04-03T04:03:03.393Z,10.56
2019-04-03T04:06:09.075Z,10.47
2019-04-03T04:09:17.492Z,10.43
2019-04-03T04:12:21.221Z,10.46
2019-04-03T04:15:29.932Z,10.44
2019-04-03T04:18:33.523Z,10.37
2019-04-03T04:21:42.981Z,10.37
2019-04-03T04:24:46.038Z,10.47
2019-04-03T04:27:52.571Z,10.34
2019-04-03T04:30:57.701Z,10.30
2019-04-03T04:34:02.981Z,10.23
2019-04-03T04:37:08.086Z,10.18
2019-04-03T04:40:14.312Z,10.12
2019-04-03T04:43:19.412Z,10.10
2019-04-03T04:46:24.678Z,10.20
2019-04-03T04:49:29.935Z,10.09
2019-04-03T04:52:35.121Z,9.96
2019-04-03T04:55:40.271Z,9.90
2019-04-03T04:58:45.342Z,9.88
2019-04-03T05:01:50.538Z,9.88
2019-04-03T05:04:56.556Z,9.96
2019-04-03T05:08:02.617Z,9.91
2019-04-03T05:11:08.198Z,9.85
2019-04-03T05:14:13.260Z,9.85
2019-04-03T05:17:18.397Z,9.82
2019-04-03T05:20:23.626Z,9.81
2019-04-03T05:23:28.762Z,9.77
2019-04-03T05:26:35.237Z,9.77
2019-04-03T05:29:40.380Z,9.79
2019-04-03T05:32:45.511Z,9.76
2019-04-03T05:35:50.625Z,9.72
2019-04-03T05:38:55.761Z,9.78
2019-04-03T05:42:01.111Z,9.80
2019-04-03T05:45:06.859Z,9.69
2019-04-03T05:48:13.543Z,9.75
2019-04-03T05:51:19.105Z,9.71
2019-04-03T05:54:24.385Z,9.72
2019-04-03T05:57:30.721Z,9.77
2019-04-03T06:00:37.518Z,9.73
2019-04-03T06:03:45.620Z,9.77
2019-04-03T06:06:49.659Z,9.70
2019-04-03T06:09:58.277Z,9.74
2019-04-03T06:13:01.625Z,9.84
2019-04-03T06:16:07.023Z,9.77
2019-04-03T06:19:12.375Z,9.78
2019-04-03T06:22:21.072Z,9.99
2019-04-03T06:25:24.283Z,10.01
2019-04-03T06:28:29.401Z,10.06
2019-04-03T06:31:34.528Z,10.18
2019-04-03T06:34:42.446Z,10.27
2019-04-03T06:37:47.634Z,10.28
2019-04-03T06:40:52.931Z,10.27
2019-04-03T06:43:58.183Z,10.52
2019-04-03T06:47:03.374Z,10.52
2019-04-03T06:50:08.708Z,10.48
2019-04-03T06:53:13.970Z,10.47
2019-04-03T06:56:19.281Z,10.44
2019-04-03T06:59:24.420Z,10.26
2019-04-03T07:02:32.027Z,10.50
2019-04-03T07:05:36.525Z,10.42
2019-04-03T07:08:41.692Z,10.79
2019-04-03T07:11:46.872Z,10.69
2019-04-03T07:14:52.166Z,10.67
2019-04-03T07:17:57.355Z,10.53
2019-04-03T07:21:02.667Z,10.44
2019-04-03T07:24:08.878Z,10.26
2019-04-03T07:27:15.147Z,10.32
2019-04-03T07:30:21.747Z,10.34
2019-04-03T07:33:28.647Z,10.23
2019-04-03T07:36:34.543Z,10.10
2019-04-03T07:39:39.627Z,10.25
2019-04-03T07:42:44.769Z,10.31
2019-04-03T07:45:50.057Z,10.44
2019-04-03T07:48:55.245Z,10.56
2019-04-03T07:52:00.506Z,10.78
2019-04-03T07:55:06.494Z,10.85
2019-04-03T07:58:11.605Z,10.79
2019-04-03T08:01:18.769Z,10.86
2019-04-03T08:04:25.242Z,11.14
2019-04-03T08:07:32.695Z,10.92
2019-04-03T08:10:38.913Z,10.98
2019-04-03T08:13:44.112Z,11.00
2019-04-03T08:16:49.302Z,11.53
2019-04-03T08:19:55.259Z,11.64
2019-04-03T08:23:00.443Z,11.62
2019-04-03T08:26:05.578Z,11.16
2019-04-03T08:29:12.072Z,10.86
2019-04-03T08:32:17.382Z,11.09
2019-04-03T08:35:23.735Z,11.50
2019-04-03T08:38:29.643Z,11.55
2019-04-03T08:41:36.919Z,11.86
2019-04-03T08:44:41.682Z,12.36
2019-04-03T08:47:46.974Z,13.14
2019-04-03T08:50:52.231Z,13.47
2019-04-03T08:53:57.420Z,13.06
2019-04-03T08:57:02.633Z,12.28
2019-04-03T09:00:08.807Z,12.15
2019-04-03T09:03:14.561Z,11.91
2019-04-03T09:06:22.157Z,11.85
2019-04-03T09:09:29.911Z,12.02
2019-04-03T09:12:34.242Z,12.16
2019-04-03T09:15:39.607Z,11.91
2019-04-03T09:18:44.733Z,12.11
2019-04-03T09:21:51.114Z,12.15
2019-04-03T09:24:56.726Z,11.81
2019-04-03T09:28:01.873Z,11.77
2019-04-03T09:31:06.965Z,11.65
2019-04-03T09:34:12.221Z,11.72
2019-04-03T09:37:18.341Z,11.74
2019-04-03T09:40:23.770Z,11.98
2019-04-03T09:43:28.948Z,12.20
2019-04-03T09:46:34.085Z,12.19
2019-04-03T09:49:42.268Z,12.61
2019-04-03T09:52:49.451Z,13.23
2019-04-03T09:55:52.885Z,13.42
2019-04-03T09:58:58.133Z,13.74
2019-04-03T10:02:03.496Z,13.71
2019-04-03T10:05:09.098Z,13.51
2019-04-03T10:08:14.277Z,13.48
2019-04-03T10:11:20.796Z,13.61
2019-04-03T10:14:28.139Z,13.31
2019-04-03T10:17:33.067Z,13.50
2019-04-03T10:20:38.366Z,13.59
2019-04-03T10:23:43.580Z,13.86
2019-04-03T10:26:48.718Z,13.17
2019-04-03T10:29:55.803Z,13.55
2019-04-03T10:33:01.056Z,13.17
2019-04-03T10:36:06.915Z,12.80
2019-04-03T10:39:14.501Z,13.03
2019-04-03T10:42:19.644Z,13.27
2019-04-03T10:45:25.140Z,13.64
2019-04-03T10:48:30.358Z,13.90
2019-04-03T10:51:35.582Z,13.75
2019-04-03T10:54:40.886Z,14.36
2019-04-03T10:57:46.098Z,14.51
2019-04-03T11:00:51.385Z,14.48
2019-04-03T11:03:56.584Z,15.22
2019-04-03T11:07:01.743Z,15.45
2019-04-03T11:10:08.687Z,15.08
2019-04-03T11:13:13.983Z,15.40
2019-04-03T11:16:19.167Z,16.16
2019-04-03T11:19:24.387Z,15.84
2019-04-03T11:22:41.048Z,16.05
2019-04-03T11:25:40.927Z,16.94
2019-04-03T11:28:44.788Z,17.17
2019-04-03T11:31:50.012Z,16.51
2019-04-03T11:34:55.319Z,15.92
2019-04-03T11:38:12.064Z,16.48
2019-04-03T11:41:14.530Z,16.74
2019-04-03T11:44:14.427Z,17.11
2019-04-03T11:47:20.271Z,16.81
2019-04-03T11:50:25.877Z,16.92
2019-04-03T11:53:30.976Z,16.57
2019-04-03T11:56:36.231Z,16.31
2019-04-03T11:59:41.414Z,16.48
2019-04-03T12:02:46.591Z,16.32
2019-04-03T12:05:51.925Z,16.13
2019-04-03T12:08:59.318Z,16.02
2019-04-03T12:12:04.538Z,16.00
2019-04-03T12:15:11.119Z,15.97
2019-04-03T12:18:16.360Z,16.51
2019-04-03T12:21:21.557Z,17.22
2019-04-03T12:24:26.783Z,17.12
2019-04-03T12:27:32.122Z,17.50
2019-04-03T12:30:37.285Z,17.37
2019-04-03T12:33:51.999Z,17.20
2019-04-03T12:36:49.450Z,17.04
2019-04-03T12:39:54.701Z,16.04
2019-04-03T12:43:00.045Z,16.04
2019-04-03T12:46:05.330Z,16.89
2019-04-03T12:49:10.719Z,16.88
2019-04-03T12:52:16.338Z,16.85
2019-04-03T12:55:22.963Z,16.57
2019-04-03T12:58:28.368Z,16.36
2019-04-03T13:01:33.623Z,16.29
2019-04-03T13:04:38.803Z,17.20
2019-04-03T13:07:45.959Z,17.36
2019-04-03T13:10:51.250Z,17.29
2019-04-03T13:13:57.273Z,17.36
2019-04-03T13:17:03.837Z,16.80
2019-04-03T13:20:10.226Z,16.65
2019-04-03T13:23:16.601Z,16.07
2019-04-03T13:26:24.082Z,16.05
2019-04-03T13:29:28.710Z,15.52
2019-04-03T13:32:34.024Z,14.90
2019-04-03T13:35:39.217Z,14.71
2019-04-03T13:38:44.466Z,14.56
2019-04-03T13:41:49.683Z,14.40
2019-04-03T13:44:57.963Z,14.27
2019-04-03T13:48:02.186Z,14.14
2019-04-03T13:51:07.372Z,13.91
2019-04-03T13:54:12.704Z,14.08
2019-04-03T13:57:18.288Z,14.05
2019-04-03T14:00:24.852Z,14.37
2019-04-03T14:03:30.247Z,14.97
2019-04-03T14:06:36.290Z,15.30
2019-04-03T14:09:42.302Z,15.41
2019-04-03T14:12:47.496Z,15.52
2019-04-03T14:15:54.747Z,15.75
2019-04-03T14:18:59.869Z,15.66
2019-04-03T14:22:05.554Z,15.98
2019-04-03T14:25:19.945Z,15.93
2019-04-03T14:28:17.891Z,15.86
2019-04-03T14:31:33.365Z,16.15
2019-04-03T14:34:30.673Z,15.78
2019-04-03T14:37:36.424Z,15.74
2019-04-03T14:40:43.494Z,15.68
2019-04-03T14:43:48.556Z,15.88
2019-04-03T14:46:53.786Z,15.75
2019-04-03T14:49:59.151Z,15.56
2019-04-03T14:53:04.777Z,15.29
2019-04-03T14:56:10.549Z,15.54
2019-04-03T14:59:15.867Z,15.66
2019-04-03T15:02:23.669Z,15.73
2019-04-03T15:05:28.077Z,15.84
2019-04-03T15:08:33.669Z,15.67
2019-04-03T15:11:39.265Z,15.67
2019-04-03T15:14:44.387Z,15.64
2019-04-03T15:17:49.856Z,15.34
2019-04-03T15:20:55.004Z,15.26
2019-04-03T15:24:00.211Z,15.16
2019-04-03T15:27:06.671Z,14.69
2019-04-03T15:30:12.722Z,14.39
2019-04-03T15:33:18.376Z,14.49
2019-04-03T15:36:24.034Z,14.32
2019-04-03T15:39:29.244Z,14.39
2019-04-03T15:42:34.713Z,14.31
2019-04-03T15:45:40.062Z,14.48
2019-04-03T15:48:45.511Z,14.20
2019-04-03T15:51:50.780Z,14.20
2019-04-03T15:54:55.959Z,14.28
2019-04-03T15:58:01.193Z,14.11
2019-04-03T16:01:08.442Z,13.82
2019-04-03T16:04:13.918Z,13.91
2019-04-03T16:07:19.419Z,13.88
2019-04-03T16:10:25.144Z,13.92
2019-04-03T16:13:30.675Z,13.83
2019-04-03T16:16:36.006Z,13.85
2019-04-03T16:19:43.359Z,13.63
2019-04-03T16:22:48.287Z,13.40
2019-04-03T16:25:53.495Z,13.37
2019-04-03T16:28:58.737Z,13.37
2019-04-03T16:32:04.098Z,13.18
2019-04-03T16:35:12.697Z,12.80
2019-04-03T16:38:16.322Z,12.75
2019-04-03T16:41:21.542Z,12.73
2019-04-03T16:44:27.463Z,12.47
2019-04-03T16:47:32.815Z,12.09
2019-04-03T16:50:38.081Z,11.97
2019-04-03T16:53:43.552Z,11.86
2019-04-03T16:56:50.036Z,11.63
2019-04-03T16:59:55.446Z,11.66
2019-04-03T17:03:06.043Z,11.35
2019-04-03T17:06:16.293Z,11.16
2019-04-03T17:09:20.754Z,10.53
2019-04-03T17:12:26.024Z,10.27
2019-04-03T17:15:32.235Z,9.65
2019-04-03T17:18:38.204Z,9.20
2019-04-03T17:21:44.467Z,8.80
2019-04-03T17:24:53.977Z,8.62
2019-04-03T17:27:58.802Z,8.19
2019-04-03T17:31:04.493Z,8.12
2019-04-03T17:34:09.944Z,8.17
2019-04-03T17:37:15.248Z,8.07
2019-04-03T17:40:20.393Z,7.98
2019-04-03T17:43:25.525Z,7.79
2019-04-03T17:46:30.715Z,7.58
2019-04-03T17:49:35.987Z,7.52
2019-04-03T17:52:41.364Z,7.36
2019-04-03T17:55:46.482Z,7.22
2019-04-03T17:58:51.644Z,7.13
2019-04-03T18:01:56.868Z,7.18
2019-04-03T18:05:02.203Z,7.00
2019-04-03T18:08:07.378Z,6.96
2019-04-03T18:11:13.312Z,6.88
2019-04-03T18:14:19.066Z,6.77
2019-04-03T18:17:24.325Z,6.76
2019-04-03T18:20:29.534Z,6.80
2019-04-03T18:23:34.788Z,6.77
2019-04-03T18:26:40.018Z,6.73
2019-04-03T18:29:45.270Z,6.74
2019-04-03T18:32:50.432Z,6.74
2019-04-03T18:35:56.817Z,6.65
2019-04-03T18:39:02.362Z,6.68
2019-04-03T18:42:08.889Z,6.59
2019-04-03T18:45:24.556Z,6.48
2019-04-03T18:48:21.521Z,6.56
2019-04-03T18:51:26.795Z,6.42
2019-04-03T18:54:32.012Z,6.39
2019-04-03T18:57:37.207Z,6.29
2019-04-03T19:00:42.403Z,6.33
2019-04-03T19:03:47.682Z,6.44
2019-04-03T19:06:52.821Z,6.24
2019-04-03T19:10:06.945Z,6.44
2019-04-03T19:13:05.235Z,6.36
2019-04-03T19:16:10.578Z,6.28
2019-04-03T19:19:16.523Z,6.31
2019-04-03T19:22:21.934Z,6.26
2019-04-03T19:25:29.408Z,6.26
2019-04-03T19:28:34.623Z,6.12
2019-04-03T19:31:40.790Z,6.15
2019-04-03T19:34:46.209Z,6.23
2019-04-03T19:37:51.413Z,6.20
2019-04-03T19:40:56.677Z,6.19
2019-04-03T19:44:02.071Z,6.21
2019-04-03T19:47:08.379Z,6.29
2019-04-03T19:50:13.579Z,6.55
2019-04-03T19:53:19.661Z,6.46
2019-04-03T19:56:25.945Z,6.23
2019-04-03T19:59:34.610Z,6.36
2019-04-03T20:02:42.726Z,6.26
2019-04-03T20:05:50.091Z,6.31
2019-04-03T20:08:53.634Z,6.38
2019-04-03T20:11:58.892Z,6.36
2019-04-03T20:15:04.184Z,6.31
2019-04-03T20:18:09.445Z,6.30
2019-04-03T20:21:15.270Z,6.36
2019-04-03T20:24:20.582Z,6.31
2019-04-03T20:27:25.800Z,6.36
2019-04-03T20:30:32.819Z,6.28
2019-04-03T20:33:37.879Z,6.30
2019-04-03T20:36:43.085Z,6.19
2019-04-03T20:39:48.298Z,6.23
2019-04-03T20:42:53.580Z,6.31
2019-04-03T20:45:58.741Z,6.23
2019-04-03T20:49:03.915Z,6.26
2019-04-03T20:52:11.473Z,6.19
2019-04-03T20:55:16.108Z,6.30
2019-04-03T20:58:21.315Z,6.30
2019-04-03T21:01:26.492Z,6.34
2019-04-03T21:04:31.770Z,6.36
2019-04-03T21:07:37.205Z,6.45
2019-04-03T21:10:42.511Z,6.34
2019-04-03T21:13:47.671Z,6.21
2019-04-03T21:16:52.756Z,6.23
2019-04-03T21:19:57.994Z,6.09
2019-04-03T21:23:03.826Z,6.29
2019-04-03T21:26:09.183Z,6.13
2019-04-03T21:29:16.609Z,6.11
2019-04-03T21:32:21.319Z,6.18
2019-04-03T21:35:26.588Z,6.30
2019-04-03T21:38:31.750Z,6.25
2019-04-03T21:41:36.951Z,6.32
2019-04-03T21:44:42.247Z,6.14
2019-04-03T21:47:47.429Z,6.10
2019-04-03T21:50:53.730Z,6.19
2019-04-03T21:53:58.972Z,6.03
2019-04-03T21:57:06.276Z,6.19
2019-04-03T22:00:14.619Z,5.93
2019-04-03T22:03:21.443Z,5.76
2019-04-03T22:06:27.733Z,5.83
2019-04-03T22:09:33.157Z,5.85
2019-04-03T22:12:38.393Z,5.73
2019-04-03T22:15:45.617Z,5.88
2019-04-03T22:18:51.009Z,5.95
2019-04-03T22:21:57.351Z,5.96
2019-04-03T22:25:02.631Z,5.95
2019-04-03T22:28:07.837Z,5.98
2019-04-03T22:31:12.920Z,6.07
2019-04-03T22:34:18.142Z,6.02
2019-04-03T22:37:23.367Z,6.04
2019-04-03T22:40:28.583Z,6.06
2019-04-03T22:43:33.766Z,6.08
2019-04-03T22:46:38.898Z,6.20
2019-04-03T22:49:44.112Z,6.15
2019-04-03T22:52:49.360Z,6.02
2019-04-03T22:55:54.523Z,5.97
2019-04-03T22:58:59.708Z,6.11
2019-04-03T23:02:04.875Z,6.13
2019-04-03T23:05:10.125Z,5.94
2019-04-03T23:08:15.242Z,5.98
2019-04-03T23:11:20.582Z,5.95
2019-04-03T23:14:25.825Z,6.06
2019-04-03T23:17:31.106Z,6.01
2019-04-03T23:20:36.387Z,6.02
2019-04-03T23:23:41.654Z,6.02
2019-04-03T23:26:46.878Z,6.18
2019-04-03T23:29:52.170Z,6.18
2019-04-03T23:32:57.568Z,6.08
2019-04-03T23:36:02.790Z,6.06
2019-04-03T23:39:09.319Z,6.14
2019-04-03T23:42:14.578Z,6.11
2019-04-03T23:45:20.535Z,6.15
2019-04-03T23:48:25.772Z,6.19
2019-04-03T23:51:30.918Z,6.10
2019-04-03T23:54:36.195Z,6.12
2019-04-03T23:57:41.384Z,6.13
